Disclaimer

    

CYCD

METAR CYCD 060100Z 01005KT 320V050 30SM FEW045 FEW100 BKN240 23/13 A2990 RMK CF1AC1CI3 SLP128 DENSITY ALT 1100FT=

METAR CYCD 060000Z 10003KT 040V110 30SM FEW040 FEW090 BKN240 22/11 A2992 RMK CU1AC1CI5 SLP134 DENSITY ALT 1000FT=

METAR CYCD 052300Z 02003KT 340V110 30SM FEW040 FEW090 BKN240 22/11 A2993 RMK CU1AC1CI5 SLP136 DENSITY ALT 1000FT=

TAF CYCD 052340Z 0600/0604 VRB03KT P6SM FEW040 BKN240RMK NXT FCST BY 061500Z

CYVR

METAR CYVR 060100Z CCA 31009KT 30SM FEW045 FEW100 FEW160 FEW180 BKN210 20/15 A2989 RMK CU1AC1AC1AC1CI4 AC TR AC TR AC TR TCU TOPS W SLP125 DENSITY ALT 700FT=

METAR CYVR 060100Z 31009KT 30SM FEW045 FEW100 FEW160 FEW180 BKN210 20/15 A2989 RMK CU1AC1AC1AC1CI4 AC TR AC TR AC TR SLP125 DENSITY ALT 700FT=

METAR CYVR 060000Z 29008KT 30SM FEW045 BKN210 BKN230 20/16 A2992 RMK CU2CI3CI1 CI TR SLP133 DENSITY ALT 600FT=

METAR CYVR 052300Z 30009KT 30SM FEW045 SCT210 BKN240 19/15 A2992 RMK CU1CI3CS3 SLP134 DENSITY ALT 500FT=

TAF CYVR 052340Z 0600/0706 29008KT P6SM FEW040 BKN210FM060400 29006KT P6SM BKN080 TEMPO 0606/0610 P6SM -SHRA BKN060FM061000 11008KT P6SM SCT030 BKN060 TEMPO 0610/0706 P6SM -SHRABKN030BECMG 0616/0618 27008KTRMK NXT FCST BY 060300Z

CYXX

METAR CYXX 060100Z 31006KT 300V360 25SM FEW045 SCT210 BKN240 BKN250 24/11 A2987 RMK CU1CC3CC3CI1 CU TR SLP117 DENSITY ALT 1400FT=

METAR CYXX 060000Z 32005KT 250V360 25SM FEW045 FEW046TCU SCT220 BKN240 BKN260 25/12 A2989 RMK CU1TCU1CC3CI2CI1 CU TR TCU TR SLP124 DENSITY ALT 1500FT=

SPECI CYXX 052313Z VRB04KT 25SM FEW040 FEW042TCU SCT210 SCT230 BKN250 24/11 A2989 RMK CU1TCU1CC3CS1CI2 CU TR TCU TR SLP124 DENSITY ALT 1400FT=

METAR CYXX 052300Z 26004KT 190V290 25SM FEW040 FEW041TCU SCT230 SCT250 BKN260 24/11 A2989 RMK CU1TCU1CC3CS1CI2 CU TR TCU TR SLP125 DENSITY ALT 1400FT=

TAF CYXX 052340Z 0600/0624 27005KT P6SM FEW040 BKN210FM060300 23005KT P6SM BKN080 TEMPO 0605/0610 P6SM -SHRA BKN060FM061000 VRB03KT P6SM SCT020 BKN050 TEMPO 0610/0624 P6SM -SHRAFEW005 BKN020BECMG 0617/0619 23007KTRMK NXT FCST BY 060600Z=

Supplemental information

Lower mainland ATIS: 1-877-517-2847

CZBB (Boundary Bay) current winds

Upper winds (Vancouver)

Data fromValid at300060009000
05120005180010081407+062009+01
05120006000015051608+081812+02
05120006120011071508+061813+02

NOTAMs

On October 10, 2019, NAV CANADA changed to the ICAO NOTAM format. They are now available only through Collaborative Flight Planning Services (CFPS) (plan.navcanada.ca). I'm working to update this site to pull in the relevant NOTAMs in the new format.